Skip Navigation Links Skip Navigation Links

Current Weather

French Valley, Murrieta/Temecula, Calif.

For information only: do not use for flight planning or navigation.
Latest weather
Observation time Tuesday, October 19, 2021 2:15 AM PDT
Local time Tuesday, October 19, 2021 2:36 AM PDT
Flight conditions Visual Meteorological Conditions
Winds
Wind speed calm
Visibility 10 mi.
Sky condition
Ceiling unlimited
Sky clear
Temperature 46°F
Dewpoint 43°F
Altimeter 30.01 in.Hg
Derived measurements
Relative humidity 87%
Wind chill 46°F
Density altitude 543 ft.
Remarks
Fully automated report.
Automated weather observing station with precipitation discriminator.
METAR KF70 190915Z AUTO 00000KT 10SM CLR 08/06 A3001 RMK AO2

Settings

Location code

InnerDrive.Weather 4.0.6770.0 Release CLR 4.0.30319.42000
Copyright ©2018 Inner Drive Technology. All rights reserved. Portions Copyright ©1986-2018 David Braverman.

Find weather

Site navigation


Skip Navigation Links

Place info

Page info

PayPal - The safer, easier way to pay online!

Return home.

Copyright ©2021 Inner Drive Technology. Purveyors of fine, hand-crafted computer software. Page printed 2021-10-19T09:36:12 UTC.